createdAt,value
2019-03-15T00:01:42.956Z,5.10
2019-03-15T00:04:12.239Z,5.10
2019-03-15T00:06:41.380Z,5.00
2019-03-15T00:09:10.603Z,5.00
2019-03-15T00:11:40.030Z,4.90
2019-03-15T00:14:09.263Z,4.90
2019-03-15T00:16:38.414Z,4.90
2019-03-15T00:19:07.603Z,4.90
2019-03-15T00:21:36.877Z,4.90
2019-03-15T00:24:06.055Z,4.90
2019-03-15T00:26:35.323Z,4.90
2019-03-15T00:29:04.504Z,4.90
2019-03-15T00:31:33.668Z,4.90
2019-03-15T00:34:02.888Z,4.90
2019-03-15T00:36:32.079Z,4.90
2019-03-15T00:39:01.315Z,4.90
2019-03-15T00:41:30.527Z,5.00
2019-03-15T00:43:59.715Z,4.90
2019-03-15T00:46:28.943Z,4.90
2019-03-15T00:48:58.186Z,4.90
2019-03-15T00:51:27.378Z,4.90
2019-03-15T00:53:56.540Z,4.90
2019-03-15T00:56:25.694Z,4.90
2019-03-15T00:58:54.931Z,4.90
2019-03-15T01:01:24.058Z,4.90
2019-03-15T01:03:53.290Z,4.90
2019-03-15T01:06:22.455Z,4.90
2019-03-15T01:08:51.586Z,5.00
2019-03-15T01:11:20.720Z,5.00
2019-03-15T01:13:49.872Z,5.00
2019-03-15T01:16:19.101Z,5.00
2019-03-15T01:18:48.251Z,5.00
2019-03-15T01:21:17.411Z,5.00
2019-03-15T01:23:46.673Z,5.00
2019-03-15T01:26:15.931Z,5.00
2019-03-15T01:28:45.155Z,5.00
2019-03-15T01:31:14.305Z,5.00
2019-03-15T01:33:43.566Z,5.00
2019-03-15T01:36:12.908Z,5.00
2019-03-15T01:38:42.204Z,5.00
2019-03-15T01:41:11.443Z,5.00
2019-03-15T01:43:40.638Z,5.00
2019-03-15T01:46:09.838Z,5.00
2019-03-15T01:48:39.000Z,5.00
2019-03-15T01:51:08.114Z,5.00
2019-03-15T01:53:37.300Z,5.00
2019-03-15T01:56:06.653Z,5.10
2019-03-15T01:58:35.797Z,5.10
2019-03-15T02:01:05.115Z,5.10
2019-03-15T02:03:34.298Z,5.10
2019-03-15T02:06:03.592Z,5.20
2019-03-15T02:08:32.811Z,5.20
2019-03-15T02:11:02.060Z,5.20
2019-03-15T02:13:31.286Z,5.20
2019-03-15T02:16:00.509Z,5.30
2019-03-15T02:18:29.700Z,5.30
2019-03-15T02:20:58.941Z,5.30
2019-03-15T02:23:28.142Z,5.30
2019-03-15T02:25:57.347Z,5.30
2019-03-15T02:28:26.522Z,5.30
2019-03-15T02:30:55.867Z,5.40
2019-03-15T02:33:25.090Z,5.40
2019-03-15T02:35:54.340Z,5.40
2019-03-15T02:38:23.505Z,5.40
2019-03-15T02:40:53.075Z,5.40
2019-03-15T02:43:22.329Z,5.40
2019-03-15T02:45:51.492Z,5.40
2019-03-15T02:48:20.723Z,5.40
2019-03-15T02:50:49.911Z,5.40
2019-03-15T02:53:19.202Z,5.40
2019-03-15T02:55:48.647Z,5.40
2019-03-15T02:58:17.965Z,5.30
2019-03-15T03:00:47.213Z,5.30
2019-03-15T03:03:16.411Z,5.30
2019-03-15T03:05:45.702Z,5.30
2019-03-15T03:08:15.016Z,5.30
2019-03-15T03:10:44.154Z,5.20
2019-03-15T03:13:13.396Z,5.20
2019-03-15T03:15:42.571Z,5.10
2019-03-15T03:18:11.814Z,4.60
2019-03-15T03:20:41.122Z,4.20
2019-03-15T03:23:10.320Z,4.00
2019-03-15T03:25:39.635Z,3.80
2019-03-15T03:28:08.787Z,3.80
2019-03-15T03:30:38.097Z,3.90
2019-03-15T03:33:07.459Z,3.90
2019-03-15T03:35:36.815Z,3.80
2019-03-15T03:38:06.077Z,3.80
2019-03-15T03:40:35.496Z,3.70
2019-03-15T03:43:04.713Z,3.70
2019-03-15T03:45:33.858Z,3.70
2019-03-15T03:48:03.118Z,3.60
2019-03-15T03:50:32.335Z,3.50
2019-03-15T03:53:01.572Z,3.50
2019-03-15T03:55:30.794Z,3.40
2019-03-15T03:57:59.943Z,3.40
2019-03-15T04:00:29.098Z,3.40
2019-03-15T04:02:58.229Z,3.40
2019-03-15T04:05:27.505Z,3.30
2019-03-15T04:07:56.714Z,3.30
2019-03-15T04:10:25.870Z,3.30
2019-03-15T04:12:55.018Z,3.30
2019-03-15T04:15:24.238Z,3.40
2019-03-15T04:17:53.410Z,3.40
2019-03-15T04:20:22.623Z,3.40
2019-03-15T04:22:51.849Z,3.50
2019-03-15T04:25:21.158Z,3.50
2019-03-15T04:27:50.422Z,3.70
2019-03-15T04:30:19.573Z,3.70
2019-03-15T04:32:48.739Z,3.70
2019-03-15T04:35:17.918Z,3.80
2019-03-15T04:37:47.134Z,3.90
2019-03-15T04:40:16.348Z,3.90
2019-03-15T04:42:45.594Z,4.00
2019-03-15T04:45:14.798Z,4.00
2019-03-15T04:47:44.030Z,4.00
2019-03-15T04:50:13.192Z,4.00
2019-03-15T04:52:42.435Z,4.10
2019-03-15T04:55:11.676Z,4.10
2019-03-15T04:57:40.888Z,4.10
2019-03-15T05:00:12.026Z,4.20
2019-03-15T05:02:41.326Z,4.20
2019-03-15T05:05:10.640Z,4.30
2019-03-15T05:07:39.871Z,4.30
2019-03-15T05:10:09.572Z,4.30
2019-03-15T05:12:38.816Z,4.40
2019-03-15T05:15:08.420Z,4.40
2019-03-15T05:17:37.608Z,4.40
2019-03-15T05:20:07.262Z,4.40
2019-03-15T05:22:36.458Z,4.50
2019-03-15T05:25:05.789Z,4.50
2019-03-15T05:27:35.016Z,4.50
2019-03-15T05:30:04.257Z,4.50
2019-03-15T05:32:33.514Z,4.50
2019-03-15T05:35:02.692Z,4.50
2019-03-15T05:37:31.935Z,4.60
2019-03-15T05:40:01.222Z,4.60
2019-03-15T05:42:30.388Z,4.60
2019-03-15T05:44:59.652Z,4.60
2019-03-15T05:47:28.888Z,4.60
2019-03-15T05:49:58.142Z,4.70
2019-03-15T05:52:27.450Z,4.70
2019-03-15T05:54:56.681Z,4.70
2019-03-15T05:57:25.992Z,4.80
2019-03-15T05:59:55.487Z,4.80
2019-03-15T06:02:24.690Z,4.80
2019-03-15T06:04:53.904Z,4.80
2019-03-15T06:07:23.130Z,4.80
2019-03-15T06:09:52.281Z,4.90
2019-03-15T06:12:21.490Z,4.90
2019-03-15T06:14:50.758Z,4.90
2019-03-15T06:17:20.028Z,5.00
2019-03-15T06:19:49.204Z,5.00
2019-03-15T06:22:18.520Z,5.00
2019-03-15T06:24:47.676Z,5.00
2019-03-15T06:27:16.888Z,5.00
2019-03-15T06:29:46.154Z,5.00
2019-03-15T06:32:15.352Z,5.10
2019-03-15T06:34:44.685Z,5.10
2019-03-15T06:37:13.893Z,5.20
2019-03-15T06:39:43.126Z,5.10
2019-03-15T06:42:12.303Z,5.20
2019-03-15T06:44:41.580Z,5.20
2019-03-15T06:47:10.747Z,5.20
2019-03-15T06:49:40.113Z,5.30
2019-03-15T06:52:09.417Z,5.40
2019-03-15T06:54:38.697Z,5.40
2019-03-15T06:57:07.957Z,5.50
2019-03-15T06:59:37.310Z,5.60
2019-03-15T07:02:06.611Z,5.70
2019-03-15T07:04:35.817Z,5.70
2019-03-15T07:07:05.085Z,5.80
2019-03-15T07:09:34.427Z,5.80
2019-03-15T07:12:09.367Z,5.80
2019-03-15T07:14:34.613Z,5.70
2019-03-15T07:17:03.860Z,5.70
2019-03-15T07:19:33.104Z,5.70
2019-03-15T07:22:02.325Z,5.70
2019-03-15T07:24:31.549Z,5.70
2019-03-15T07:27:12.104Z,5.70
2019-03-15T07:29:31.813Z,5.70
2019-03-15T07:32:01.052Z,5.70
2019-03-15T07:34:30.224Z,5.80
2019-03-15T07:36:59.575Z,5.80
2019-03-15T07:39:28.813Z,5.70
2019-03-15T07:41:58.059Z,5.80
2019-03-15T07:44:27.205Z,5.80
2019-03-15T07:46:56.560Z,5.80
2019-03-15T07:49:25.867Z,5.80
2019-03-15T07:51:55.182Z,5.80
2019-03-15T07:54:37.031Z,5.90
2019-03-15T07:56:55.211Z,5.90
2019-03-15T07:59:24.373Z,5.90
2019-03-15T08:01:53.542Z,6.00
2019-03-15T08:04:22.913Z,6.00
2019-03-15T08:06:52.221Z,6.00
2019-03-15T08:09:21.499Z,6.00
2019-03-15T08:11:50.815Z,6.00
2019-03-15T08:14:20.057Z,6.00
2019-03-15T08:16:49.307Z,5.90
2019-03-15T08:19:18.554Z,5.90
2019-03-15T08:21:47.851Z,6.00
2019-03-15T08:24:17.007Z,6.00
2019-03-15T08:26:46.135Z,6.10
2019-03-15T08:29:15.365Z,6.20
2019-03-15T08:31:46.941Z,6.30
2019-03-15T08:34:15.539Z,6.30
2019-03-15T08:36:44.699Z,6.40
2019-03-15T08:39:14.027Z,6.50
2019-03-15T08:41:43.247Z,6.60
2019-03-15T08:44:12.511Z,6.60
2019-03-15T08:46:41.701Z,6.60
2019-03-15T08:49:10.874Z,6.70
2019-03-15T08:51:40.094Z,6.70
2019-03-15T08:54:09.293Z,6.60
2019-03-15T08:56:38.508Z,6.70
2019-03-15T08:59:07.728Z,6.80
2019-03-15T09:01:36.872Z,6.80
2019-03-15T09:04:06.093Z,6.80
2019-03-15T09:06:35.271Z,6.80
2019-03-15T09:09:06.649Z,6.70
2019-03-15T09:11:35.887Z,6.70
2019-03-15T09:14:05.150Z,6.80
2019-03-15T09:16:34.420Z,6.90
2019-03-15T09:19:03.699Z,6.90
2019-03-15T09:21:33.003Z,6.90
2019-03-15T09:24:02.189Z,7.00
2019-03-15T09:26:31.551Z,6.90
2019-03-15T09:29:00.807Z,6.90
2019-03-15T09:31:42.304Z,6.80
2019-03-15T09:34:01.005Z,6.90
2019-03-15T09:36:31.521Z,6.90
2019-03-15T09:39:01.269Z,7.00
2019-03-15T09:41:34.335Z,7.00
2019-03-15T09:44:01.641Z,7.10
2019-03-15T09:46:31.952Z,7.00
2019-03-15T09:49:01.308Z,6.90
2019-03-15T09:51:30.615Z,6.80
2019-03-15T09:53:59.816Z,6.80
2019-03-15T09:56:32.375Z,6.80
2019-03-15T09:59:01.693Z,6.80
2019-03-15T10:01:35.059Z,6.90
2019-03-15T10:04:01.833Z,6.80
2019-03-15T10:06:31.039Z,6.80
2019-03-15T10:09:00.245Z,6.70
2019-03-15T10:11:29.473Z,6.80
2019-03-15T10:13:58.667Z,6.80
2019-03-15T10:16:27.919Z,6.70
2019-03-15T10:18:57.136Z,6.70
2019-03-15T10:21:26.295Z,6.60
2019-03-15T10:23:56.431Z,6.60
2019-03-15T10:26:25.716Z,6.50
2019-03-15T10:28:54.953Z,6.50
2019-03-15T10:31:26.589Z,6.50
2019-03-15T10:33:54.938Z,6.50
2019-03-15T10:36:24.114Z,6.50
2019-03-15T10:38:53.335Z,6.30
2019-03-15T10:41:22.483Z,6.30
2019-03-15T10:43:51.648Z,6.20
2019-03-15T10:46:20.903Z,6.10
2019-03-15T10:48:50.095Z,6.10
2019-03-15T10:51:19.363Z,6.10
2019-03-15T10:53:48.584Z,6.10
2019-03-15T10:56:17.819Z,6.10
2019-03-15T10:58:47.125Z,6.10
2019-03-15T11:01:16.597Z,6.10
2019-03-15T11:03:45.887Z,6.10
2019-03-15T11:06:15.194Z,6.00
2019-03-15T11:08:46.795Z,6.00
2019-03-15T11:11:16.143Z,6.00
2019-03-15T11:13:45.451Z,6.00
2019-03-15T11:16:15.555Z,6.00
2019-03-15T11:18:44.817Z,6.10
2019-03-15T11:21:14.041Z,6.00
2019-03-15T11:23:43.235Z,6.10
2019-03-15T11:26:13.907Z,6.10
2019-03-15T11:28:43.517Z,6.20
2019-03-15T11:31:12.743Z,6.20
2019-03-15T11:33:41.959Z,6.20
2019-03-15T11:36:11.271Z,6.30
2019-03-15T11:38:40.455Z,6.40
2019-03-15T11:41:09.706Z,6.20
2019-03-15T11:43:38.985Z,6.30
2019-03-15T11:46:08.235Z,6.40
2019-03-15T11:48:37.467Z,6.50
2019-03-15T11:51:06.723Z,6.50
2019-03-15T11:53:35.884Z,6.50
2019-03-15T11:56:05.187Z,6.40
2019-03-15T11:58:34.440Z,6.40
2019-03-15T12:01:03.595Z,6.40
2019-03-15T12:03:32.855Z,6.40
2019-03-15T12:06:02.154Z,6.50
2019-03-15T12:08:31.435Z,6.60
2019-03-15T12:11:00.700Z,6.60
2019-03-15T12:13:29.947Z,6.70
2019-03-15T12:15:59.231Z,6.60
2019-03-15T12:18:28.585Z,6.60
2019-03-15T12:20:57.978Z,6.70
2019-03-15T12:23:27.146Z,6.80
2019-03-15T12:25:56.334Z,6.80
2019-03-15T12:28:25.575Z,6.80
2019-03-15T12:30:54.829Z,6.90
2019-03-15T12:33:24.106Z,7.00
2019-03-15T12:35:53.292Z,7.10
2019-03-15T12:38:22.479Z,7.10
2019-03-15T12:40:51.666Z,7.10
2019-03-15T12:43:20.904Z,7.10
2019-03-15T12:45:50.173Z,7.20
2019-03-15T12:48:19.582Z,7.20
2019-03-15T12:50:48.810Z,7.20
2019-03-15T12:53:18.191Z,7.20
2019-03-15T12:55:47.462Z,7.30
2019-03-15T12:58:16.689Z,7.50
2019-03-15T13:00:45.984Z,7.50
2019-03-15T13:03:15.183Z,7.50
2019-03-15T13:05:44.370Z,7.50
2019-03-15T13:08:13.520Z,7.50
2019-03-15T13:10:42.774Z,7.60
2019-03-15T13:13:11.997Z,7.60
2019-03-15T13:15:41.302Z,7.60
2019-03-15T13:18:10.623Z,7.70
2019-03-15T13:20:39.973Z,7.80
2019-03-15T13:23:09.176Z,7.80
2019-03-15T13:25:38.569Z,7.90
2019-03-15T13:28:07.758Z,7.90
2019-03-15T13:30:39.233Z,7.90
2019-03-15T13:33:19.493Z,8.00
2019-03-15T13:35:39.526Z,8.00
2019-03-15T13:38:08.775Z,8.00
2019-03-15T13:40:41.142Z,8.10
2019-03-15T13:43:10.494Z,8.20
2019-03-15T13:45:41.486Z,8.30
2019-03-15T13:48:10.676Z,8.30
2019-03-15T13:50:39.928Z,8.40
2019-03-15T13:53:09.079Z,8.40
2019-03-15T13:55:38.350Z,8.40
2019-03-15T13:58:07.580Z,8.50
2019-03-15T14:00:36.792Z,8.70
2019-03-15T14:03:05.960Z,8.70
2019-03-15T14:05:35.181Z,8.80
2019-03-15T14:08:11.574Z,8.80
2019-03-15T14:10:48.339Z,8.80
2019-03-15T14:13:06.346Z,8.90
2019-03-15T14:15:35.517Z,9.00
2019-03-15T14:18:04.686Z,9.00
2019-03-15T14:20:34.011Z,9.00
2019-03-15T14:23:03.252Z,9.10
2019-03-15T14:25:32.468Z,9.10
2019-03-15T14:28:01.624Z,9.10
2019-03-15T14:30:30.788Z,9.10
2019-03-15T14:33:00.015Z,9.20
2019-03-15T14:35:29.292Z,9.20
2019-03-15T14:37:58.624Z,9.20
2019-03-15T14:40:27.965Z,9.20
2019-03-15T14:42:57.182Z,9.30
2019-03-15T14:45:26.579Z,9.30
2019-03-15T14:47:56.048Z,9.30
2019-03-15T14:50:25.305Z,9.30
2019-03-15T14:52:54.622Z,9.40
2019-03-15T14:55:23.972Z,9.30
2019-03-15T14:57:53.745Z,9.30
2019-03-15T15:00:23.103Z,9.40
2019-03-15T15:02:52.364Z,9.30
2019-03-15T15:05:21.541Z,9.30
2019-03-15T15:07:50.710Z,9.40
2019-03-15T15:10:20.032Z,9.30
2019-03-15T15:12:49.382Z,9.30
2019-03-15T15:15:18.538Z,9.30
2019-03-15T15:17:47.818Z,9.30
2019-03-15T15:20:16.994Z,9.40
2019-03-15T15:22:46.215Z,9.40
2019-03-15T15:25:15.480Z,9.40
2019-03-15T15:27:44.819Z,9.40
2019-03-15T15:30:14.696Z,9.40
2019-03-15T15:32:44.058Z,9.40
2019-03-15T15:35:13.851Z,9.40
2019-03-15T15:37:43.208Z,9.40
2019-03-15T15:40:12.387Z,9.40
2019-03-15T15:42:41.709Z,9.40
2019-03-15T15:45:11.126Z,9.40
2019-03-15T15:47:40.475Z,9.40
2019-03-15T15:50:10.046Z,9.40
2019-03-15T15:52:39.289Z,9.40
2019-03-15T15:55:08.904Z,9.40
2019-03-15T15:57:38.178Z,9.30
2019-03-15T16:00:08.998Z,9.40
2019-03-15T16:02:38.214Z,9.30
2019-03-15T16:05:08.799Z,9.40
2019-03-15T16:07:38.098Z,9.40
2019-03-15T16:10:09.088Z,9.40
2019-03-15T16:12:38.455Z,9.40
2019-03-15T16:15:08.318Z,9.40
2019-03-15T16:17:37.531Z,9.30
2019-03-15T16:20:07.121Z,9.30
2019-03-15T16:22:36.572Z,9.40
2019-03-15T16:25:06.162Z,9.40
2019-03-15T16:27:35.503Z,9.40
2019-03-15T16:30:06.190Z,9.40
2019-03-15T16:32:35.479Z,9.40
2019-03-15T16:35:05.006Z,9.30
2019-03-15T16:37:34.310Z,9.30
2019-03-15T16:40:03.586Z,9.30
2019-03-15T16:42:32.910Z,9.40
2019-03-15T16:45:02.098Z,9.30
2019-03-15T16:47:31.485Z,9.40
2019-03-15T16:50:00.696Z,9.40
2019-03-15T16:52:30.250Z,9.40
2019-03-15T16:54:59.493Z,9.30
2019-03-15T16:57:28.669Z,9.30
2019-03-15T16:59:57.968Z,9.30
2019-03-15T17:02:27.214Z,9.30
2019-03-15T17:04:56.495Z,9.30
2019-03-15T17:07:25.783Z,9.30
2019-03-15T17:09:55.086Z,9.30
2019-03-15T17:12:24.292Z,9.30
2019-03-15T17:14:53.529Z,9.40
2019-03-15T17:17:22.811Z,9.40
2019-03-15T17:19:54.191Z,9.40
2019-03-15T17:22:23.089Z,9.40
2019-03-15T17:24:52.391Z,9.40
2019-03-15T17:27:21.740Z,9.40
2019-03-15T17:29:50.945Z,9.40
2019-03-15T17:32:20.142Z,9.40
2019-03-15T17:34:49.303Z,9.50
2019-03-15T17:37:18.551Z,9.50
2019-03-15T17:39:47.764Z,9.50
2019-03-15T17:42:17.067Z,9.50
2019-03-15T17:44:46.318Z,9.50
2019-03-15T17:47:15.577Z,9.50
2019-03-15T17:49:44.857Z,9.50
2019-03-15T17:52:14.298Z,9.50
2019-03-15T17:54:43.457Z,9.50
2019-03-15T17:57:12.699Z,9.50
2019-03-15T17:59:43.403Z,9.50
2019-03-15T18:02:12.618Z,9.50
2019-03-15T18:04:41.933Z,9.50
2019-03-15T18:07:11.183Z,9.50
2019-03-15T18:09:40.444Z,9.50
2019-03-15T18:12:09.745Z,9.50
2019-03-15T18:14:38.937Z,9.50
2019-03-15T18:17:08.165Z,9.50
2019-03-15T18:19:37.459Z,9.50
2019-03-15T18:22:06.769Z,9.50
2019-03-15T18:24:36.019Z,9.50
2019-03-15T18:27:05.206Z,9.50
2019-03-15T18:29:34.442Z,9.50
2019-03-15T18:32:03.621Z,9.50
2019-03-15T18:34:32.857Z,9.50
2019-03-15T18:37:02.185Z,9.50
2019-03-15T18:39:31.438Z,9.50
2019-03-15T18:42:00.591Z,9.50
2019-03-15T18:44:29.880Z,9.50
2019-03-15T18:46:59.070Z,9.50
2019-03-15T18:49:28.349Z,9.50
2019-03-15T18:51:57.582Z,9.50
2019-03-15T18:54:26.811Z,9.50
2019-03-15T18:56:56.077Z,9.50
2019-03-15T18:59:25.261Z,9.50
2019-03-15T19:01:54.483Z,9.60
2019-03-15T19:04:23.674Z,9.60
2019-03-15T19:06:52.873Z,9.60
2019-03-15T19:09:22.119Z,9.60
2019-03-15T19:11:51.317Z,9.60
2019-03-15T19:14:20.470Z,9.60
2019-03-15T19:16:49.767Z,9.60
2019-03-15T19:19:19.053Z,9.70
2019-03-15T19:21:48.302Z,9.70
2019-03-15T19:24:17.530Z,9.60
2019-03-15T19:26:46.807Z,9.70
2019-03-15T19:29:16.001Z,9.60
2019-03-15T19:31:45.269Z,9.70
2019-03-15T19:34:14.467Z,9.70
2019-03-15T19:36:43.822Z,9.70
2019-03-15T19:39:15.263Z,9.70
2019-03-15T19:41:44.579Z,9.70
2019-03-15T19:44:13.961Z,9.70
2019-03-15T19:46:43.176Z,9.70
2019-03-15T19:49:12.417Z,9.70
2019-03-15T19:51:41.713Z,9.70
2019-03-15T19:54:11.137Z,9.70
2019-03-15T19:56:40.557Z,9.70
2019-03-15T19:59:09.975Z,9.70
2019-03-15T20:01:39.320Z,9.80
2019-03-15T20:04:08.659Z,9.80
2019-03-15T20:06:38.001Z,9.80
2019-03-15T20:09:08.104Z,9.80
2019-03-15T20:11:37.583Z,9.90
2019-03-15T20:14:06.988Z,9.90
2019-03-15T20:16:36.355Z,9.90
2019-03-15T20:19:05.647Z,9.90
2019-03-15T20:21:35.141Z,9.90
2019-03-15T20:24:04.403Z,9.90
2019-03-15T20:26:33.836Z,9.80
2019-03-15T20:29:03.038Z,9.80
2019-03-15T20:31:32.243Z,9.80
2019-03-15T20:34:01.522Z,9.80
2019-03-15T20:36:30.838Z,9.80
2019-03-15T20:39:00.137Z,9.80
2019-03-15T20:41:29.433Z,9.80
2019-03-15T20:44:00.411Z,9.90
2019-03-15T20:46:35.574Z,9.80
2019-03-15T20:49:00.448Z,9.80
2019-03-15T20:51:29.706Z,9.80
2019-03-15T20:53:59.129Z,9.80
2019-03-15T20:56:28.476Z,9.80
2019-03-15T20:58:57.733Z,9.80
2019-03-15T21:01:26.906Z,9.80
2019-03-15T21:03:56.501Z,9.80
2019-03-15T21:06:25.768Z,9.80
2019-03-15T21:08:54.984Z,9.80
2019-03-15T21:11:24.168Z,9.80
2019-03-15T21:13:53.387Z,9.80
2019-03-15T21:16:22.622Z,9.80
2019-03-15T21:18:51.859Z,9.80
2019-03-15T21:21:21.125Z,9.80
2019-03-15T21:23:50.300Z,9.80
2019-03-15T21:26:19.485Z,9.90
2019-03-15T21:28:48.745Z,9.80
2019-03-15T21:31:17.993Z,9.80
2019-03-15T21:33:47.173Z,9.80
2019-03-15T21:36:16.448Z,9.80
2019-03-15T21:38:48.537Z,9.90
2019-03-15T21:41:16.558Z,9.90
2019-03-15T21:43:45.764Z,9.90
2019-03-15T21:46:15.050Z,9.90
2019-03-15T21:48:44.216Z,10.00
2019-03-15T21:51:13.550Z,10.00
2019-03-15T21:53:42.877Z,10.00
2019-03-15T21:56:12.104Z,10.00
2019-03-15T21:58:41.266Z,10.00
2019-03-15T22:01:10.438Z,10.10
2019-03-15T22:03:39.711Z,10.10
2019-03-15T22:06:08.983Z,10.00
2019-03-15T22:08:38.231Z,10.00
2019-03-15T22:11:20.188Z,10.10
2019-03-15T22:13:38.744Z,10.10
2019-03-15T22:16:07.987Z,10.10
2019-03-15T22:18:40.027Z,10.10
2019-03-15T22:21:09.177Z,10.10
2019-03-15T22:23:38.590Z,10.10
2019-03-15T22:26:07.888Z,10.10
2019-03-15T22:28:37.046Z,10.20
2019-03-15T22:31:16.162Z,10.20
2019-03-15T22:33:37.293Z,10.20
2019-03-15T22:36:06.574Z,10.10
2019-03-15T22:38:35.754Z,10.10
2019-03-15T22:41:05.012Z,10.10
2019-03-15T22:43:34.244Z,10.10
2019-03-15T22:46:03.472Z,10.10
2019-03-15T22:48:32.712Z,10.10
2019-03-15T22:51:01.870Z,10.10
2019-03-15T22:53:31.115Z,10.10
2019-03-15T22:56:00.275Z,10.10
2019-03-15T22:58:29.527Z,10.10
2019-03-15T23:00:58.848Z,10.10
2019-03-15T23:03:28.005Z,10.10
2019-03-15T23:05:57.286Z,10.20
2019-03-15T23:08:26.590Z,10.20
2019-03-15T23:10:55.772Z,10.20
2019-03-15T23:13:25.018Z,10.20
2019-03-15T23:15:54.228Z,10.10
2019-03-15T23:18:23.475Z,10.20
2019-03-15T23:20:52.684Z,10.20
2019-03-15T23:23:24.028Z,10.20
2019-03-15T23:25:53.262Z,10.20
2019-03-15T23:28:22.615Z,10.20
2019-03-15T23:30:51.920Z,10.20
2019-03-15T23:33:21.434Z,10.20
2019-03-15T23:35:54.198Z,10.20
2019-03-15T23:38:21.877Z,10.20
2019-03-15T23:40:51.260Z,10.20
2019-03-15T23:43:20.716Z,10.20
2019-03-15T23:45:50.204Z,10.20
2019-03-15T23:48:19.776Z,10.20
2019-03-15T23:50:49.097Z,10.30
2019-03-15T23:53:18.361Z,10.20
2019-03-15T23:55:47.664Z,10.30
2019-03-15T23:58:16.994Z,10.30
